Time;durP1;ratioP1;P1;durP2;ratioP2;P2;SDS_P1;SDS_P2;PMS_P1;PMS_P2;Temp;Humidity;BMP_temperature;BMP_pressure;BME280_temperature;BME280_humidity;BME280_pressure;Samples;Min_cycle;Max_cycle;Signal;HPM_P1;HPM_P2
2023/04/18 00:02:44;;;;;;;0.00;0.00;;;;;;;-145.06;100.00;98591.97;10363424;28;20617;-76
2023/04/18 00:07:44;;;;;;;0.00;0.00;;;;;;;-145.06;100.00;98532.56;10357651;28;20267;-76
2023/04/18 00:12:44;;;;;;;0.00;0.00;;;;;;;-145.06;100.00;98604.25;10348263;28;20020;-76
2023/04/18 00:17:46;;;;;;;0.00;0.00;;;;;;;-145.06;100.00;98618.59;10347116;28;20033;-76
2023/04/18 00:22:47;;;;;;;0.00;0.00;;;;;;;-145.06;100.00;98565.34;10344831;28;20133;-76
2023/04/18 00:27:47;;;;;;;0.00;0.00;;;;;;;-145.06;100.00;98594.00;10338206;28;20030;-77
2023/04/18 00:32:47;;;;;;;0.00;0.00;;;;;;;-145.06;100.00;98622.69;10344299;28;20022;-76
2023/04/18 00:37:48;;;;;;;0.00;0.00;;;;;;;-145.06;100.00;98610.38;10345196;28;20394;-76
2023/04/18 00:42:48;;;;;;;0.00;0.00;;;;;;;-145.06;100.00;98618.59;10347203;28;20413;-77
2023/04/18 00:47:48;;;;;;;0.00;0.00;;;;;;;-145.06;100.00;98573.53;10355988;28;20022;-77
2023/04/18 00:52:49;;;;;;;0.00;0.00;;;;;;;-145.06;100.00;98618.59;10343905;28;20024;-76
2023/04/18 00:57:50;;;;;;;0.00;0.00;;;;;;;-145.06;100.00;98561.25;10342601;28;20081;-76
2023/04/18 01:02:52;;;;;;;0.00;0.00;;;;;;;-145.06;100.00;98632.91;10325443;28;20032;-77
2023/04/18 01:07:57;;;;;;;0.00;0.00;;;;;;;-145.06;100.00;98559.19;10339230;28;20133;-77
2023/04/18 01:13:14;;;;;;;0.00;0.00;;;;;;;-145.06;100.00;98596.06;10340154;28;20026;-77
2023/04/18 01:18:16;;;;;;;0.00;0.00;;;;;;;-145.06;100.00;98567.38;10337657;28;20018;-77
2023/04/18 01:23:17;;;;;;;0.00;0.00;;;;;;;-145.06;100.00;98536.66;10324779;28;20105;-76
2023/04/18 01:28:20;;;;;;;0.00;0.00;;;;;;;-145.06;100.00;98561.25;10341721;28;20025;-76
2023/04/18 01:33:20;;;;;;;0.00;0.00;;;;;;;-145.06;100.00;98563.28;10339127;28;20018;-76
2023/04/18 01:38:20;;;;;;;0.00;0.00;;;;;;;-145.06;100.00;98651.34;10342509;28;20018;-76
2023/04/18 01:43:21;;;;;;;0.00;0.00;;;;;;;-145.06;100.00;98608.34;10344199;28;20265;-76
2023/04/18 01:48:21;;;;;;;0.00;0.00;;;;;;;-145.06;100.00;98589.91;10343189;28;20070;-76
2023/04/18 01:53:22;;;;;;;0.00;0.00;;;;;;;-145.06;100.00;98239.75;10343401;28;20018;-77
2023/04/18 01:58:24;;;;;;;0.00;0.00;;;;;;;-145.06;100.00;98125.06;10339502;28;20026;-77
2023/04/18 02:03:24;;;;;;;0.00;0.00;;;;;;;-145.06;100.00;98069.78;10340862;28;20019;-77
2023/04/18 02:08:25;;;;;;;0.00;0.00;;;;;;;-145.06;100.00;98118.94;10353421;28;20018;-77
2023/04/18 02:13:25;;;;;;;0.00;0.00;;;;;;;-145.06;100.00;98184.44;10351688;28;20034;-77
2023/04/18 02:18:25;;;;;;;0.00;0.00;;;;;;;-145.06;100.00;98086.16;10336396;28;20050;-77
2023/04/18 02:23:26;;;;;;;0.00;0.00;;;;;;;-145.06;100.00;98063.63;10351600;28;20077;-76
2023/04/18 02:28:26;;;;;;;0.00;0.00;;;;;;;-145.06;100.00;98071.84;10359506;28;20037;-76
2023/04/18 02:33:26;;;;;;;0.00;0.00;;;;;;;-145.06;100.00;98098.44;10344623;28;20046;-77
2023/04/18 02:38:27;;;;;;;0.00;0.00;;;;;;;-145.06;100.00;98043.16;10322350;28;20481;-77
2023/04/18 02:43:28;;;;;;;0.00;0.00;;;;;;;-145.06;100.00;97973.53;10346893;28;20091;-77
2023/04/18 02:48:28;;;;;;;0.00;0.00;;;;;;;-145.06;100.00;98155.78;10352659;28;20022;-76
2023/04/18 02:53:28;;;;;;;0.00;0.00;;;;;;;-145.06;100.00;98104.59;10358133;28;20500;-76
2023/04/18 02:58:29;;;;;;;0.00;0.00;;;;;;;-145.06;100.00;97953.06;10347437;28;20022;-76
2023/04/18 03:03:29;;;;;;;0.00;0.00;;;;;;;-145.06;100.00;98047.25;10354850;28;20022;-77
2023/04/18 03:08:29;;;;;;;0.00;0.00;;;;;;;-145.06;100.00;98073.88;10344690;28;20033;-76
2023/04/18 03:13:30;;;;;;;0.00;0.00;;;;;;;-145.06;100.00;98090.25;10342191;28;20469;-76
2023/04/18 03:18:30;;;;;;;0.00;0.00;;;;;;;-145.06;100.00;98045.22;10360166;28;20068;-77
2023/04/18 03:23:30;;;;;;;0.00;0.00;;;;;;;-145.06;100.00;98032.94;10360792;28;20061;-77
2023/04/18 03:28:31;;;;;;;0.00;0.00;;;;;;;-145.06;100.00;98082.06;10348896;28;20278;-77
2023/04/18 03:33:31;;;;;;;0.00;0.00;;;;;;;-145.06;100.00;98069.78;10361870;28;20034;-77
2023/04/18 03:38:31;;;;;;;0.00;0.00;;;;;;;-145.06;100.00;98030.88;10335966;28;20030;-76
2023/04/18 03:43:32;;;;;;;0.00;0.00;;;;;;;-145.06;100.00;98030.88;10330748;28;20022;-76
2023/04/18 03:48:35;;;;;;;0.00;0.00;;;;;;;-145.06;100.00;98120.97;10345473;28;20019;-77
2023/04/18 03:53:36;;;;;;;0.00;0.00;;;;;;;-145.06;100.00;98043.16;10343696;28;20274;-76
2023/04/18 03:58:36;;;;;;;0.00;0.00;;;;;;;-145.06;100.00;98102.53;10342673;28;20022;-76
2023/04/18 04:03:36;;;;;;;0.00;0.00;;;;;;;-145.06;100.00;98082.06;10305263;28;20036;-76
2023/04/18 04:08:36;;;;;;;0.00;0.00;;;;;;;-145.06;100.00;98110.75;10363122;28;20025;-76
2023/04/18 04:13:37;;;;;;;0.00;0.00;;;;;;;-145.06;100.00;98145.53;10366255;28;20026;-76
2023/04/18 04:18:37;;;;;;;0.00;0.00;;;;;;;-145.06;100.00;98063.63;10342295;28;20034;-76
2023/04/18 04:23:37;;;;;;;0.00;0.00;;;;;;;-145.06;100.00;98204.94;10322945;28;20117;-76
2023/04/18 04:28:38;;;;;;;0.00;0.00;;;;;;;-145.06;100.00;98057.50;10340960;28;20025;-76
2023/04/18 04:33:39;;;;;;;0.00;0.00;;;;;;;-145.06;100.00;98024.75;10343859;28;20022;-77
2023/04/18 04:38:40;;;;;;;0.00;0.00;;;;;;;-145.06;100.00;97918.25;10337637;28;20048;-77
2023/04/18 04:43:41;;;;;;;0.00;0.00;;;;;;;-145.06;100.00;97856.84;10324215;28;20393;-77
2023/04/18 04:48:42;;;;;;;0.00;0.00;;;;;;;-145.06;100.00;97758.56;10337023;28;20134;-77
2023/04/18 04:53:42;;;;;;;0.00;0.00;;;;;;;-145.06;100.00;97631.63;10346151;28;20146;-77
2023/04/18 04:58:43;;;;;;;0.00;0.00;;;;;;;-145.06;100.00;97330.66;10354771;28;20520;-77
2023/04/18 05:03:44;;;;;;;0.00;0.00;;;;;;;-145.06;100.00;97240.59;10354240;28;20513;-77
2023/04/18 05:08:44;;;;;;;0.00;0.00;;;;;;;-145.06;100.00;97113.66;10344984;28;20093;-77
2023/04/18 05:13:44;;;;;;;0.10;0.10;;;;;;;-145.06;98.63;96845.50;10331013;28;20022;-77
2023/04/18 05:18:44;;;;;;;0.10;0.10;;;;;;;-145.06;95.17;96886.44;10323957;28;20018;-77
2023/04/18 05:23:45;;;;;;;0.00;0.00;;;;;;;-145.06;92.26;96968.31;10347970;28;20452;-77
2023/04/18 05:28:45;;;;;;;0.10;0.10;;;;;;;-145.06;89.09;96927.38;10338988;28;20045;-77
2023/04/18 05:33:45;;;;;;;0.10;0.10;;;;;;;-145.06;88.55;96888.47;10337974;28;20030;-78
2023/04/18 05:38:46;;;;;;;0.10;0.10;;;;;;;-145.06;86.41;96816.84;10336088;28;20022;-78
2023/04/18 05:43:46;;;;;;;0.05;0.05;;;;;;;-145.06;86.36;96892.56;10329276;28;20026;-77
2023/04/18 05:48:46;;;;;;;0.10;0.10;;;;;;;-145.06;87.48;96765.66;10344607;28;20022;-78
2023/04/18 05:53:47;;;;;;;0.10;0.10;;;;;;;-145.06;90.45;96857.78;10332929;28;20648;-78
2023/04/18 05:58:50;;;;;;;0.10;0.10;;;;;;;-145.06;91.13;96675.59;10336910;28;20019;-78
2023/04/18 06:03:50;;;;;;;0.10;0.10;;;;;;;-145.06;88.85;96734.97;10342052;28;21117;-77
2023/04/18 06:08:50;;;;;;;0.00;0.00;;;;;;;-145.06;88.82;96593.72;10340528;28;20023;-78
2023/04/18 06:13:51;;;;;;;0.75;0.30;;;;;;;-145.06;86.95;96583.47;10342278;28;20425;-77
2023/04/18 06:18:51;;;;;;;0.10;0.10;;;;;;;-145.06;81.97;96622.38;10349987;28;20032;-78
2023/04/18 06:23:51;;;;;;;0.10;0.10;;;;;;;-145.06;82.59;96565.06;10337478;28;20417;-78
2023/04/18 06:28:51;;;;;;;0.10;0.10;;;;;;;-145.06;77.53;96468.88;10347889;28;20024;-78
2023/04/18 06:33:52;;;;;;;0.10;0.10;;;;;;;-145.06;75.88;96444.31;10364874;28;20084;-78
2023/04/18 06:38:52;;;;;;;0.10;0.10;;;;;;;-145.06;77.83;96913.03;10344976;28;20088;-77
2023/04/18 06:43:52;;;;;;;0.10;0.10;;;;;;;-145.06;89.33;97097.28;10349855;28;20644;-76
2023/04/18 06:48:53;;;;;;;0.10;0.10;;;;;;;-145.06;100.00;97295.84;10328333;28;20482;-76
2023/04/18 06:53:53;;;;;;;0.10;0.10;;;;;;;-145.06;100.00;97367.50;10338456;28;20029;-77
2023/04/18 06:58:53;;;;;;;0.10;0.10;;;;;;;-145.06;100.00;97451.44;10346217;28;20030;-76
2023/04/18 07:03:54;;;;;;;0.10;0.10;;;;;;;-145.06;100.00;97404.38;10349416;28;20040;-76
2023/04/18 07:08:58;;;;;;;0.03;0.03;;;;;;;-145.06;100.00;97457.59;10354591;28;20404;-76
2023/04/18 07:13:59;;;;;;;0.08;0.08;;;;;;;-145.06;100.00;97455.53;10357682;28;20021;-77
2023/04/18 07:18:59;;;;;;;0.10;0.10;;;;;;;-145.06;100.00;97353.19;10333154;28;20026;-77
2023/04/18 07:24:00;;;;;;;0.00;0.00;;;;;;;-145.06;100.00;97312.22;10351553;28;20050;-79
2023/04/18 07:29:00;;;;;;;0.00;0.00;;;;;;;-145.06;100.00;97271.28;10338666;28;20096;-78
2023/04/18 07:34:00;;;;;;;0.10;0.10;;;;;;;-145.06;100.00;97287.66;10350190;28;20029;-77
2023/04/18 07:39:00;;;;;;;0.05;0.05;;;;;;;-145.06;100.00;97228.31;10343339;28;20367;-77
2023/04/18 07:44:01;;;;;;;0.05;0.05;;;;;;;-145.06;100.00;97224.19;10341423;28;20029;-78
2023/04/18 07:49:02;;;;;;;0.10;0.10;;;;;;;-145.06;100.00;97093.19;10350595;28;20108;-78
2023/04/18 07:54:02;;;;;;;0.00;0.00;;;;;;;-145.06;98.76;97033.81;10360169;28;20535;-77
2023/04/18 07:59:03;;;;;;;0.10;0.10;;;;;;;-145.06;100.00;97015.41;10352866;28;20076;-77
2023/04/18 08:04:03;;;;;;;0.10;0.10;;;;;;;-145.06;94.36;96988.78;10352786;28;20030;-78
2023/04/18 08:09:04;;;;;;;0.10;0.10;;;;;;;-145.06;97.33;97001.06;10349518;28;20026;-78
2023/04/18 08:14:05;;;;;;;0.10;0.10;;;;;;;-145.06;93.60;96972.41;10346379;28;20022;-78
2023/04/18 08:19:05;;;;;;;0.10;0.10;;;;;;;-145.06;92.59;96935.56;10344297;28;20022;-78
2023/04/18 08:24:06;;;;;;;0.08;0.08;;;;;;;-145.06;94.76;97044.06;10357807;28;20029;-78
2023/04/18 08:29:06;;;;;;;0.10;0.10;;;;;;;-145.06;95.74;97037.91;10340137;28;20385;-78
2023/04/18 08:34:07;;;;;;;0.10;0.10;;;;;;;-145.06;89.10;97013.34;10361583;28;20036;-78
2023/04/18 08:39:07;;;;;;;0.10;0.10;;;;;;;-145.06;87.31;96994.94;10359579;28;20018;-77
2023/04/18 08:44:08;;;;;;;0.10;0.10;;;;;;;-145.06;92.91;96951.94;10340046;28;20034;-78
2023/04/18 08:49:08;;;;;;;0.00;0.00;;;;;;;-145.06;90.60;96886.44;10337850;28;20017;-78
2023/04/18 08:54:09;;;;;;;0.10;0.10;;;;;;;-145.06;87.06;96915.09;10342615;28;20431;-78
2023/04/18 08:59:10;;;;;;;0.10;0.10;;;;;;;-145.06;82.59;96743.16;10356455;28;20027;-77
2023/04/18 09:04:12;;;;;;;0.00;0.00;;;;;;;-145.06;85.30;96714.50;10346482;28;20017;-78
2023/04/18 09:09:13;;;;;;;0.10;0.10;;;;;;;-145.06;84.37;96775.91;10350805;28;20014;-78
2023/04/18 09:14:31;;;;;;;0.10;0.10;;;;;;;-145.06;90.04;96874.16;10362146;28;20030;-78
2023/04/18 09:19:32;;;;;;;0.00;0.00;;;;;;;-145.06;88.67;97015.41;10343673;28;20030;-78
2023/04/18 09:24:33;;;;;;;0.10;0.10;;;;;;;-145.06;98.01;97035.88;10359619;28;20025;-78
2023/04/18 09:29:48;;;;;;;0.10;0.10;;;;;;;-145.06;100.00;97095.22;10362612;28;20385;-77
2023/04/18 09:34:48;;;;;;;0.10;0.10;;;;;;;-145.06;100.00;96984.69;10349737;28;20025;-77
2023/04/18 09:39:51;;;;;;;0.00;0.00;;;;;;;-145.06;100.00;97128.00;10357245;28;20030;-77
2023/04/18 09:45:02;;;;;;;0.10;0.10;;;;;;;-145.06;100.00;97132.09;10352437;28;20109;-77
2023/04/18 09:50:04;;;;;;;0.08;0.08;;;;;;;-145.06;100.00;97295.84;10347015;28;20060;-77
2023/04/18 09:55:13;;;;;;;0.10;0.10;;;;;;;-145.06;100.00;97136.19;10338617;28;20120;-77
2023/04/18 10:00:18;;;;;;;0.00;0.00;;;;;;;-145.06;100.00;97130.03;10351045;28;20041;-78
2023/04/18 10:05:22;;;;;;;0.10;0.10;;;;;;;-145.06;100.00;96767.72;10424164;23;20033;-79
2023/04/18 10:10:23;;;;;;;0.10;0.10;;;;;;;-145.06;97.14;97181.22;10384455;28;20096;-77
2023/04/18 10:15:26;;;;;;;0.00;0.00;;;;;;;-145.06;100.00;97250.81;10365070;28;20087;-78
2023/04/18 10:20:31;;;;;;;0.10;0.10;;;;;;;-145.06;100.00;97312.22;10367536;28;20018;-78
2023/04/18 10:25:38;;;;;;;0.10;0.10;;;;;;;-145.06;100.00;97177.13;10374072;28;20092;-79
2023/04/18 10:30:41;;;;;;;0.00;0.00;;;;;;;-145.06;97.60;97224.19;10379241;28;20029;-79
2023/04/18 10:36:02;;;;;;;0.10;0.10;;;;;;;-145.06;100.00;97261.06;10365286;28;20026;-78
2023/04/18 10:41:20;;;;;;;0.00;0.00;;;;;;;-145.06;100.00;97246.72;10374027;28;20384;-79
2023/04/18 10:46:20;;;;;;;0.10;0.10;;;;;;;-145.06;100.00;97248.78;10382226;28;20026;-79
2023/04/18 10:51:20;;;;;;;0.10;0.10;;;;;;;-145.06;100.00;97277.44;10381498;28;20092;-79
2023/04/18 10:56:21;;;;;;;0.10;0.10;;;;;;;-145.06;100.00;97308.16;10392873;28;20025;-77
2023/04/18 11:01:29;;;;;;;0.10;0.10;;;;;;;-145.06;100.00;97342.94;10396866;28;20021;-78
2023/04/18 11:06:30;;;;;;;0.10;0.10;;;;;;;-145.06;100.00;97293.81;10409333;28;20427;-78
2023/04/18 11:11:30;;;;;;;0.10;0.10;;;;;;;-145.06;100.00;97390.03;10397944;28;20021;-78
2023/04/18 11:16:32;;;;;;;0.10;0.10;;;;;;;-145.06;100.00;97359.31;10399389;28;20076;-78
2023/04/18 11:21:32;;;;;;;0.00;0.00;;;;;;;-145.06;100.00;97365.47;10394147;28;20101;-79
2023/04/18 11:26:37;;;;;;;0.10;0.10;;;;;;;-145.06;100.00;97367.50;10408303;28;20056;-78
2023/04/18 11:31:37;;;;;;;;;;;;;;;-145.06;100.00;97238.53;10404913;28;20032;-78
2023/04/18 11:36:37;;;;;;;0.00;0.00;;;;;;;-145.06;100.00;97193.50;10396884;28;19909;-79
2023/04/18 11:41:40;;;;;;;0.00;0.00;;;;;;;-145.06;100.00;97173.03;10385662;28;20021;-78
2023/04/18 11:46:41;;;;;;;0.10;0.10;;;;;;;-145.06;100.00;97267.19;10403881;28;20041;-78
2023/04/18 11:51:45;;;;;;;0.10;0.10;;;;;;;-145.06;100.00;97213.97;10394650;28;20026;-78
2023/04/18 11:56:48;;;;;;;0.10;0.10;;;;;;;-145.06;100.00;97123.91;10384186;28;20029;-79
2023/04/18 12:02:03;;;;;;;0.00;0.00;;;;;;;-145.06;100.00;97115.69;10400234;28;20021;-78
2023/04/18 12:07:03;;;;;;;0.00;0.00;;;;;;;-145.06;100.00;97111.63;10407286;28;20037;-79
2023/04/18 12:12:05;;;;;;;0.10;0.10;;;;;;;-145.06;100.00;97099.31;10385177;28;20028;-78
2023/04/18 12:17:05;;;;;;;0.10;0.10;;;;;;;-145.06;97.66;97095.22;10393419;28;20093;-79
2023/04/18 12:22:06;;;;;;;0.00;0.00;;;;;;;-145.06;100.00;96988.78;10404851;28;20049;-78
2023/04/18 12:27:06;;;;;;;0.10;0.10;;;;;;;-145.06;98.28;97046.09;10370167;28;20120;-78
2023/04/18 12:32:07;;;;;;;0.00;0.00;;;;;;;-145.06;96.63;97058.38;10391167;28;20096;-78
2023/04/18 12:37:08;;;;;;;0.00;0.00;;;;;;;-145.06;92.96;96994.94;10377743;28;20055;-78
2023/04/18 12:42:08;;;;;;;0.00;0.00;;;;;;;-145.06;91.34;96968.31;10383296;28;20018;-78
2023/04/18 12:47:08;;;;;;;0.10;0.10;;;;;;;-145.06;94.98;96931.47;10396960;28;20030;-79
2023/04/18 12:52:09;;;;;;;0.10;0.10;;;;;;;-145.06;92.80;96976.50;10399512;28;20024;-78
2023/04/18 12:57:09;;;;;;;0.10;0.10;;;;;;;-145.06;90.03;96984.69;10394454;28;20022;-78
2023/04/18 13:02:09;;;;;;;0.10;0.10;;;;;;;-145.06;93.24;96978.56;10398029;28;20295;-77
2023/04/18 13:07:10;;;;;;;0.10;0.10;;;;;;;-145.06;88.06;97001.06;10376143;28;20034;-77
2023/04/18 13:12:11;;;;;;;0.10;0.10;;;;;;;-145.06;90.55;97019.50;10376864;28;20117;-77
2023/04/18 13:17:12;;;;;;;0.10;0.10;;;;;;;-145.06;87.22;97027.69;10377594;28;20360;-77
2023/04/18 13:22:12;;;;;;;0.00;0.00;;;;;;;-145.06;85.95;96939.66;10395241;28;20022;-76
2023/04/18 13:27:13;;;;;;;0.10;0.10;;;;;;;-145.06;93.17;96933.50;10388001;28;20251;-76
2023/04/18 13:32:13;;;;;;;0.00;0.00;;;;;;;-145.06;88.33;96935.56;10396681;28;20021;-77
2023/04/18 13:37:14;;;;;;;0.10;0.10;;;;;;;-145.06;85.16;96976.50;10397201;28;20026;-77
2023/04/18 13:42:15;;;;;;;0.10;0.10;;;;;;;-145.06;85.24;96970.38;10372895;28;20025;-77
2023/04/18 13:47:15;;;;;;;0.10;0.10;;;;;;;-145.06;90.16;96974.47;10404057;28;20056;-77
2023/04/18 13:52:16;;;;;;;0.10;0.10;;;;;;;-145.06;95.33;96925.31;10398754;28;20021;-77
2023/04/18 13:57:16;;;;;;;0.10;0.10;;;;;;;-145.06;84.70;96845.50;10377368;28;20281;-77
2023/04/18 14:02:16;;;;;;;0.00;0.00;;;;;;;-145.06;82.17;96829.13;10396674;28;20025;-77
2023/04/18 14:07:17;;;;;;;0.10;0.10;;;;;;;-145.06;90.36;96882.34;10391347;28;20028;-77
2023/04/18 14:12:17;;;;;;;0.00;0.00;;;;;;;-145.06;82.87;96820.94;10397183;28;20025;-77
2023/04/18 14:17:17;;;;;;;0.00;0.00;;;;;;;-145.06;88.53;96894.63;10389927;28;20485;-77
2023/04/18 14:22:17;;;;;;;0.10;0.10;;;;;;;-145.06;81.19;96898.72;10390471;28;20014;-77
2023/04/18 14:27:18;;;;;;;0.10;0.10;;;;;;;-145.06;83.16;96886.44;10391202;28;20152;-77
2023/04/18 14:32:18;;;;;;;0.10;0.10;;;;;;;-145.06;76.24;96839.34;10379462;28;20053;-78
2023/04/18 14:37:18;;;;;;;0.10;0.10;;;;;;;-145.06;77.33;96827.06;10395474;28;20021;-78
2023/04/18 14:42:19;;;;;;;0.10;0.10;;;;;;;-145.06;76.64;96911.00;10398112;28;20075;-78
2023/04/18 14:47:19;;;;;;;0.10;0.10;;;;;;;-145.06;81.61;96996.97;10414865;28;20017;-78
2023/04/18 14:52:19;;;;;;;0.10;0.10;;;;;;;-145.06;79.51;96888.47;10415290;28;20025;-78
2023/04/18 14:57:20;;;;;;;0.10;0.10;;;;;;;-145.06;77.30;96960.13;10403183;28;20017;-78
2023/04/18 15:02:20;;;;;;;0.10;0.10;;;;;;;-145.06;84.38;97003.13;10402974;28;20098;-79
2023/04/18 15:07:20;;;;;;;0.00;0.00;;;;;;;-145.06;81.13;97128.00;10402296;28;20017;-79
2023/04/18 15:12:21;;;;;;;0.00;0.00;;;;;;;-145.06;82.60;97078.84;10401071;28;20392;-79
2023/04/18 15:17:21;;;;;;;0.10;0.10;;;;;;;-145.06;82.26;96996.97;10401712;28;20267;-78
2023/04/18 15:22:21;;;;;;;0.10;0.10;;;;;;;-145.06;83.41;97042.00;10387839;28;20021;-79
2023/04/18 15:27:21;;;;;;;0.08;0.08;;;;;;;-145.06;86.16;96870.06;10405903;28;20029;-79
2023/04/18 15:32:23;;;;;;;0.10;0.10;;;;;;;-145.06;82.34;96931.47;10396107;28;20025;-79
2023/04/18 15:37:23;;;;;;;0.03;0.03;;;;;;;-145.06;86.08;97029.72;10415030;28;20025;-79
2023/04/18 15:42:24;;;;;;;0.10;0.10;;;;;;;-145.06;81.49;97080.91;10395587;28;20074;-79
2023/04/18 15:47:24;;;;;;;0.10;0.10;;;;;;;-145.06;85.86;96988.78;10402228;28;20029;-78
2023/04/18 15:52:24;;;;;;;0.00;0.00;;;;;;;-145.06;83.85;97007.22;10391138;28;20025;-78
2023/04/18 15:57:25;;;;;;;0.10;0.10;;;;;;;-145.06;80.88;97033.81;10412954;28;20049;-79
2023/04/18 16:02:26;;;;;;;0.10;0.10;;;;;;;-145.06;79.62;97058.38;10420783;22;20321;-80
2023/04/18 16:07:26;;;;;;;0.10;0.10;;;;;;;-145.06;83.53;96974.47;10494156;28;20039;-80
2023/04/18 16:12:26;;;;;;;0.10;0.10;;;;;;;-145.06;83.54;97013.34;10478390;28;20162;-82
2023/04/18 16:17:26;;;;;;;0.00;0.00;;;;;;;-145.06;84.80;97037.91;10487072;28;20106;-81
2023/04/18 16:22:27;;;;;;;0.10;0.10;;;;;;;-145.06;82.21;96964.22;10488284;28;20066;-80
2023/04/18 16:27:28;;;;;;;0.10;0.10;;;;;;;-145.06;89.17;97033.81;10478816;28;20280;-80
2023/04/18 16:32:28;;;;;;;0.10;0.10;;;;;;;-145.06;88.25;96951.94;10484531;28;20036;-79
2023/04/18 16:37:29;;;;;;;0.10;0.10;;;;;;;-145.06;88.37;97001.06;10464047;28;20116;-80
2023/04/18 16:42:29;;;;;;;0.10;0.10;;;;;;;-145.06;89.88;97005.16;10499856;28;20033;-80
2023/04/18 16:47:29;;;;;;;0.10;0.10;;;;;;;-145.06;92.37;97056.34;10480585;28;20016;-79
2023/04/18 16:52:30;;;;;;;0.10;0.10;;;;;;;-145.06;93.01;97097.28;10477905;28;20050;-81
2023/04/18 16:57:30;;;;;;;0.00;0.00;;;;;;;-145.06;91.13;97121.84;10482045;28;20436;-79
2023/04/18 17:02:31;;;;;;;0.10;0.10;;;;;;;-145.06;88.56;96980.59;10465701;28;20643;-80
2023/04/18 17:07:31;;;;;;;0.00;0.00;;;;;;;-145.06;88.19;97031.78;10449731;28;20039;-81
2023/04/18 17:12:31;;;;;;;0.10;0.10;;;;;;;-145.06;94.00;96988.78;10466867;28;20024;-81
2023/04/18 17:17:32;;;;;;;0.10;0.10;;;;;;;-145.06;92.88;97033.81;10450080;28;20393;-80
2023/04/18 17:22:33;;;;;;;0.10;0.10;;;;;;;-145.06;91.85;97058.38;10449494;28;20812;-81
2023/04/18 17:27:33;;;;;;;0.08;0.08;;;;;;;-145.06;88.79;97050.19;10444938;28;20104;-80
2023/04/18 17:32:34;;;;;;;0.10;0.10;;;;;;;-145.06;90.72;96974.47;10449456;28;20028;-79
2023/04/18 17:37:34;;;;;;;0.10;0.10;;;;;;;-145.06;93.84;97134.13;10465501;28;20387;-80
2023/04/18 17:42:35;;;;;;;0.00;0.00;;;;;;;-145.06;100.00;97132.09;10446016;28;20021;-81
2023/04/18 17:47:36;;;;;;;0.10;0.10;;;;;;;-145.06;100.00;97248.78;10454142;28;20039;-83
2023/04/18 17:52:36;;;;;;;0.00;0.00;;;;;;;-145.06;100.00;97230.34;10467314;28;20392;-78
2023/04/18 17:57:36;;;;;;;0.10;0.10;;;;;;;-145.06;100.00;97154.59;10463151;28;20040;-81
2023/04/18 18:02:37;;;;;;;0.10;0.10;;;;;;;-145.06;100.00;97115.69;10443629;28;20534;-81
2023/04/18 18:07:37;;;;;;;0.10;0.10;;;;;;;-145.06;100.00;97334.75;10462687;28;20677;-78
2023/04/18 18:12:38;;;;;;;0.05;0.05;;;;;;;-145.06;100.00;97293.81;10449996;28;20271;-81
2023/04/18 18:17:39;;;;;;;0.05;0.05;;;;;;;-145.06;100.00;97279.47;10454157;28;20119;-81
2023/04/18 18:22:39;;;;;;;0.10;0.10;;;;;;;-145.06;100.00;97240.59;10470737;28;20025;-81
2023/04/18 18:27:39;;;;;;;0.10;0.10;;;;;;;-145.06;100.00;97234.44;10452731;28;20021;-80
2023/04/18 18:32:40;;;;;;;0.10;0.10;;;;;;;-145.06;100.00;97457.59;10468162;28;20043;-80
2023/04/18 18:37:40;;;;;;;0.10;0.10;;;;;;;-145.06;100.00;97316.34;10449328;28;20618;-81
2023/04/18 18:42:41;;;;;;;0.00;0.00;;;;;;;-145.06;100.00;97451.44;10467673;28;20029;-81
2023/04/18 18:47:41;;;;;;;0.00;0.00;;;;;;;-145.06;100.00;97287.66;10449604;28;20339;-81
2023/04/18 18:52:42;;;;;;;0.00;0.00;;;;;;;-145.06;100.00;97480.13;10449671;28;20055;-79
2023/04/18 18:57:42;;;;;;;0.00;0.00;;;;;;;-145.06;100.00;97422.78;10467393;28;20093;-79
2023/04/18 19:02:42;;;;;;;0.10;0.10;;;;;;;-145.06;100.00;97418.69;10467984;28;20267;-80
2023/04/18 19:07:43;;;;;;;0.00;0.00;;;;;;;-145.06;100.00;97527.19;10467675;28;20025;-80
2023/04/18 19:12:43;;;;;;;0.08;0.08;;;;;;;-145.06;100.00;97447.34;10450596;28;20024;-78
2023/04/18 19:17:43;;;;;;;0.00;0.00;;;;;;;-145.06;100.00;97414.59;10470930;28;20032;-80
2023/04/18 19:22:44;;;;;;;0.00;0.00;;;;;;;-145.06;100.00;97445.31;10453804;28;20052;-78
2023/04/18 19:27:44;;;;;;;0.00;0.00;;;;;;;-145.06;100.00;97406.41;10455824;28;20115;-81
2023/04/18 19:32:45;;;;;;;0.10;0.10;;;;;;;-145.06;100.00;97433.03;10455265;28;20611;-78
2023/04/18 19:37:45;;;;;;;0.00;0.00;;;;;;;-145.06;100.00;97490.34;10471549;28;20031;-80
2023/04/18 19:42:46;;;;;;;0.00;0.00;;;;;;;-145.06;100.00;97496.50;10452234;28;20060;-79
2023/04/18 19:47:46;;;;;;;0.00;0.00;;;;;;;-145.06;100.00;97510.81;10463819;28;20464;-78
2023/04/18 19:52:46;;;;;;;0.00;0.00;;;;;;;-145.06;100.00;97533.34;10446146;28;20328;-79
2023/04/18 19:57:47;;;;;;;0.00;0.00;;;;;;;-145.06;100.00;97555.88;10448322;28;20029;-80
2023/04/18 20:02:47;;;;;;;0.00;0.00;;;;;;;-145.06;100.00;97621.38;10471624;28;20052;-80
2023/04/18 20:07:48;;;;;;;0.00;0.00;;;;;;;-145.06;100.00;97541.53;10450722;28;20064;-78
2023/04/18 20:12:48;;;;;;;0.05;0.05;;;;;;;-145.06;100.00;97516.97;10449380;28;20362;-80
2023/04/18 20:17:48;;;;;;;0.00;0.00;;;;;;;-145.06;100.00;97521.06;10466345;28;20427;-79
2023/04/18 20:22:49;;;;;;;0.00;0.00;;;;;;;-145.06;100.00;97582.47;10469844;28;20104;-75
2023/04/18 20:27:50;;;;;;;0.00;0.00;;;;;;;-145.06;100.00;97586.56;10448914;28;20049;-78
2023/04/18 20:32:50;;;;;;;0.00;0.00;;;;;;;-145.06;100.00;97582.47;10445588;28;20021;-79
2023/04/18 20:37:51;;;;;;;0.00;0.00;;;;;;;-145.06;100.00;97535.38;10465090;28;20090;-80
2023/04/18 20:42:53;;;;;;;0.00;0.00;;;;;;;-145.06;100.00;97562.00;10446949;28;20500;-80
2023/04/18 20:47:53;;;;;;;0.00;0.00;;;;;;;-145.06;100.00;97547.69;10447605;28;20271;-79
2023/04/18 20:52:54;;;;;;;0.00;0.00;;;;;;;-145.06;100.00;97617.28;10448689;28;20025;-79
2023/04/18 20:57:55;;;;;;;0.00;0.00;;;;;;;-145.06;100.00;97594.75;10448002;28;20290;-79
2023/04/18 21:02:56;;;;;;;0.00;0.00;;;;;;;-145.06;100.00;97627.53;10447931;28;20029;-79
2023/04/18 21:07:58;;;;;;;0.00;0.00;;;;;;;-145.06;100.00;97611.16;10464931;28;20044;-80
2023/04/18 21:12:58;;;;;;;0.00;0.00;;;;;;;-145.06;100.00;97625.47;10448224;28;20086;-80
2023/04/18 21:17:59;;;;;;;0.00;0.00;;;;;;;-145.06;100.00;97607.03;10446533;28;20090;-79
2023/04/18 21:22:59;;;;;;;0.00;0.00;;;;;;;-145.06;100.00;97578.38;10447601;28;20052;-81
2023/04/18 21:27:59;;;;;;;0.00;0.00;;;;;;;-145.06;100.00;97631.63;10445764;28;20294;-80
2023/04/18 21:33:00;;;;;;;0.00;0.00;;;;;;;-145.06;100.00;97611.16;10446154;28;20368;-81
2023/04/18 21:38:00;;;;;;;0.00;0.00;;;;;;;-145.06;100.00;97549.72;10445725;28;20341;-81
2023/04/18 21:43:00;;;;;;;0.00;0.00;;;;;;;-145.06;100.00;97621.38;10477670;28;20269;-80
2023/04/18 21:48:01;;;;;;;0.00;0.00;;;;;;;-145.06;100.00;97609.09;10443953;28;20027;-79
2023/04/18 21:53:01;;;;;;;0.00;0.00;;;;;;;-145.06;100.00;97621.38;10444267;28;20063;-79
2023/04/18 21:58:01;;;;;;;0.00;0.00;;;;;;;-145.06;100.00;97592.72;10445263;28;20031;-80
2023/04/18 22:03:01;;;;;;;0.00;0.00;;;;;;;-145.06;100.00;97578.38;10443640;23;20468;-79
2023/04/18 22:08:02;;;;;;;0.00;0.00;;;;;;;-145.06;100.00;97578.38;10415701;28;20033;-78
2023/04/18 22:13:03;;;;;;;0.00;0.00;;;;;;;-145.06;100.00;97584.53;10418716;28;20021;-77
2023/04/18 22:18:07;;;;;;;0.00;0.00;;;;;;;-145.06;100.00;97592.72;10418572;28;20029;-78
2023/04/18 22:23:07;;;;;;;0.00;0.00;;;;;;;-145.06;100.00;97584.53;10414484;28;20061;-78
2023/04/18 22:28:08;;;;;;;0.00;0.00;;;;;;;-145.06;100.00;97598.84;10407861;28;20030;-79
2023/04/18 22:33:08;;;;;;;0.00;0.00;;;;;;;-145.06;100.00;97549.72;10399004;28;20084;-79
2023/04/18 22:38:09;;;;;;;0.00;0.00;;;;;;;-145.06;100.00;97611.16;10416838;28;20026;-77